createdAt,value
2019-04-29T00:00:34.949Z,4.20
2019-04-29T00:03:03.439Z,4.00
2019-04-29T00:05:31.930Z,4.00
2019-04-29T00:08:00.700Z,3.87
2019-04-29T00:10:29.351Z,4.30
2019-04-29T00:12:57.802Z,4.67
2019-04-29T00:15:33.810Z,4.20
2019-04-29T00:18:03.878Z,3.73
2019-04-29T00:20:42.716Z,4.13
2019-04-29T00:23:11.205Z,4.60
2019-04-29T00:25:39.646Z,3.83
2019-04-29T00:28:08.081Z,3.77
2019-04-29T00:30:36.575Z,4.23
2019-04-29T00:33:05.073Z,4.50
2019-04-29T00:35:33.516Z,3.77
2019-04-29T00:38:03.655Z,4.40
2019-04-29T00:40:42.502Z,4.00
2019-04-29T00:43:12.582Z,3.57
2019-04-29T00:45:41.066Z,3.43
2019-04-29T00:48:09.570Z,3.90
2019-04-29T00:50:38.006Z,4.10
2019-04-29T00:53:06.442Z,3.50
2019-04-29T00:55:34.867Z,4.00
2019-04-29T00:58:03.313Z,4.13
2019-04-29T01:00:39.521Z,3.87
2019-04-29T01:03:08.018Z,4.30
2019-04-29T01:05:37.184Z,4.23
2019-04-29T01:08:05.845Z,4.57
2019-04-29T01:10:34.340Z,3.90
2019-04-29T01:13:02.784Z,4.40
2019-04-29T01:15:31.206Z,4.07
2019-04-29T01:17:59.659Z,3.90
2019-04-29T01:20:28.085Z,4.00
2019-04-29T01:22:56.599Z,4.10
2019-04-29T01:25:25.089Z,3.50
2019-04-29T01:28:07.063Z,4.40
2019-04-29T01:30:41.359Z,4.53
2019-04-29T01:33:09.805Z,4.33
2019-04-29T01:35:38.218Z,3.80
2019-04-29T01:38:06.714Z,3.80
2019-04-29T01:40:36.820Z,4.40
2019-04-29T01:43:05.303Z,3.87
2019-04-29T01:45:33.738Z,3.80
2019-04-29T01:48:02.423Z,3.53
2019-04-29T01:50:30.867Z,3.93
2019-04-29T01:52:59.311Z,3.97
2019-04-29T01:55:27.793Z,3.50
2019-04-29T01:57:56.214Z,3.60
2019-04-29T02:00:24.659Z,4.10
2019-04-29T02:02:53.069Z,3.53
2019-04-29T02:05:21.571Z,3.67
2019-04-29T02:07:50.067Z,3.90
2019-04-29T02:10:32.243Z,3.67
2019-04-29T02:13:00.675Z,3.57
2019-04-29T02:15:29.113Z,3.23
2019-04-29T02:17:57.536Z,3.70
2019-04-29T02:20:25.962Z,3.73
2019-04-29T02:22:56.044Z,4.03
2019-04-29T02:25:26.104Z,3.90
2019-04-29T02:27:54.531Z,4.50
2019-04-29T02:30:45.059Z,4.20
2019-04-29T02:33:13.485Z,4.50
2019-04-29T02:35:42.178Z,4.20
2019-04-29T02:38:12.337Z,4.10
2019-04-29T02:40:42.471Z,4.63
2019-04-29T02:43:15.484Z,3.60
2019-04-29T02:45:43.943Z,4.40
2019-04-29T02:48:12.376Z,5.13
2019-04-29T02:50:40.803Z,3.73
2019-04-29T02:53:09.239Z,4.30
2019-04-29T02:55:39.324Z,3.67
2019-04-29T02:58:15.154Z,4.93
2019-04-29T03:01:01.179Z,4.70
2019-04-29T03:03:42.979Z,5.17
2019-04-29T03:06:11.497Z,4.90
2019-04-29T03:08:40.080Z,5.30
2019-04-29T03:11:08.801Z,5.17
2019-04-29T03:13:37.238Z,5.20
2019-04-29T03:16:05.800Z,4.83
2019-04-29T03:18:35.880Z,5.80
2019-04-29T03:21:05.942Z,8.30
2019-04-29T03:23:34.381Z,8.00
2019-04-29T03:26:02.813Z,8.53
2019-04-29T03:28:31.378Z,10.20
2019-04-29T03:30:59.977Z,10.53
2019-04-29T03:33:28.444Z,10.93
2019-04-29T03:35:56.880Z,10.80
2019-04-29T03:38:25.326Z,11.60
2019-04-29T03:40:53.752Z,13.13
2019-04-29T03:43:22.337Z,11.53
2019-04-29T03:45:50.798Z,11.13
2019-04-29T03:48:19.411Z,11.97
2019-04-29T03:50:47.901Z,10.07
2019-04-29T03:53:16.340Z,11.30
2019-04-29T03:55:44.769Z,11.00
2019-04-29T03:58:13.206Z,11.03
2019-04-29T04:00:44.206Z,9.70
2019-04-29T04:03:26.512Z,11.73
2019-04-29T04:05:59.696Z,10.60
2019-04-29T04:08:29.780Z,10.27
2019-04-29T04:10:58.215Z,10.50
2019-04-29T04:13:26.656Z,9.00
2019-04-29T04:15:55.084Z,9.80
2019-04-29T04:21:01.741Z,9.30
2019-04-29T04:23:30.203Z,10.27
2019-04-29T04:25:58.637Z,10.53
2019-04-29T04:28:27.968Z,10.30
2019-04-29T04:30:56.504Z,8.70
2019-04-29T04:33:24.927Z,10.90
2019-04-29T04:35:53.390Z,10.27
2019-04-29T04:38:21.899Z,9.60
2019-04-29T04:40:51.994Z,10.67
2019-04-29T04:43:20.427Z,9.60
2019-04-29T04:45:48.869Z,10.50
2019-04-29T04:48:17.321Z,10.40
2019-04-29T04:50:45.820Z,10.60
2019-04-29T04:53:14.255Z,10.07
2019-04-29T04:55:44.373Z,10.40
2019-04-29T04:58:12.801Z,9.97
2019-04-29T05:00:41.320Z,9.87
2019-04-29T05:03:09.743Z,10.13
2019-04-29T05:05:38.178Z,9.70
2019-04-29T05:08:06.605Z,8.90
2019-04-29T05:10:35.051Z,8.63
2019-04-29T05:13:03.486Z,9.80
2019-04-29T05:15:31.927Z,8.53
2019-04-29T05:18:00.359Z,8.07
2019-04-29T05:20:28.811Z,8.60
2019-04-29T05:22:59.627Z,8.83
2019-04-29T05:25:30.279Z,8.93
2019-04-29T05:27:58.775Z,8.13
2019-04-29T05:30:27.279Z,8.37
2019-04-29T05:32:55.706Z,7.60
2019-04-29T05:35:45.119Z,6.67
2019-04-29T05:38:23.950Z,6.43
2019-04-29T05:40:57.078Z,5.77
2019-04-29T05:43:36.083Z,6.97
2019-04-29T05:46:09.247Z,6.17
2019-04-29T05:48:37.672Z,6.00
2019-04-29T05:51:16.978Z,7.03
2019-04-29T05:53:56.118Z,6.47
2019-04-29T05:56:24.658Z,6.77
2019-04-29T05:58:53.075Z,7.50
2019-04-29T06:01:23.151Z,7.63
2019-04-29T06:03:51.575Z,7.77
2019-04-29T06:06:20.023Z,8.00
2019-04-29T06:08:48.519Z,8.10
2019-04-29T06:11:16.948Z,8.60
2019-04-29T06:13:45.367Z,8.93
2019-04-29T06:16:16.113Z,8.70
2019-04-29T06:18:43.965Z,10.10
2019-04-29T06:21:12.399Z,8.87
2019-04-29T06:23:40.834Z,8.60
2019-04-29T06:26:09.351Z,9.23
2019-04-29T06:28:37.794Z,9.63
2019-04-29T06:31:06.237Z,8.43
2019-04-29T06:33:34.669Z,9.40
2019-04-29T06:36:03.175Z,8.93
2019-04-29T06:38:31.663Z,10.00
2019-04-29T06:41:00.078Z,9.47
2019-04-29T06:43:30.356Z,9.90
2019-04-29T06:45:58.691Z,8.97
2019-04-29T06:48:27.137Z,9.77
2019-04-29T06:50:55.558Z,9.00
2019-04-29T06:53:24.007Z,9.30
2019-04-29T06:55:52.490Z,8.60
2019-04-29T06:58:20.944Z,9.50
2019-04-29T07:00:51.093Z,8.70
2019-04-29T07:03:20.952Z,9.20
2019-04-29T07:05:51.515Z,9.57
2019-04-29T07:08:20.110Z,8.80
2019-04-29T07:10:48.543Z,9.67
2019-04-29T07:13:17.859Z,8.73
2019-04-29T07:15:47.789Z,8.70
2019-04-29T07:18:17.386Z,8.33
2019-04-29T07:20:45.807Z,9.10
2019-04-29T07:23:14.251Z,8.23
2019-04-29T07:25:42.678Z,8.93
2019-04-29T07:28:13.782Z,9.30
2019-04-29T07:31:00.426Z,8.37
2019-04-29T07:33:11.447Z,8.63
2019-04-29T07:35:43.085Z,8.17
2019-04-29T07:38:10.044Z,9.10
2019-04-29T07:40:38.748Z,9.07
2019-04-29T07:43:09.632Z,9.87
2019-04-29T07:45:44.338Z,8.70
2019-04-29T07:48:12.758Z,9.60
2019-04-29T07:50:41.259Z,8.77
2019-04-29T07:53:09.708Z,9.03
2019-04-29T07:55:38.127Z,9.47
2019-04-29T07:58:06.563Z,9.13
2019-04-29T08:00:35.632Z,7.87
2019-04-29T08:03:06.824Z,8.60
2019-04-29T08:05:35.311Z,8.77
2019-04-29T08:08:04.013Z,8.80
2019-04-29T08:10:32.551Z,8.20
2019-04-29T08:13:01.070Z,10.40
2019-04-29T08:15:31.887Z,8.13
2019-04-29T08:18:06.283Z,7.53
2019-04-29T08:20:29.836Z,7.10
2019-04-29T08:22:58.550Z,8.70
2019-04-29T08:25:28.449Z,6.80
2019-04-29T08:27:56.943Z,7.90
2019-04-29T08:30:25.467Z,8.37
2019-04-29T08:32:53.894Z,8.70
2019-04-29T08:35:22.330Z,7.73
2019-04-29T08:37:50.759Z,6.80
2019-04-29T08:40:19.276Z,7.13
2019-04-29T08:42:58.312Z,7.77
2019-04-29T08:45:28.385Z,8.67
2019-04-29T08:47:57.723Z,7.13
2019-04-29T08:50:26.225Z,8.47
2019-04-29T08:52:54.659Z,13.90
2019-04-29T08:55:26.662Z,8.10
2019-04-29T08:57:53.249Z,7.50
2019-04-29T09:00:21.780Z,6.50
2019-04-29T09:02:50.226Z,6.37
2019-04-29T09:05:18.659Z,6.27
2019-04-29T09:07:47.087Z,6.57
2019-04-29T09:10:15.867Z,6.40
2019-04-29T09:12:44.289Z,6.80
2019-04-29T09:15:13.124Z,6.50
2019-04-29T09:17:41.556Z,7.20
2019-04-29T09:20:10.349Z,7.70
2019-04-29T09:22:40.407Z,7.30
2019-04-29T09:25:21.295Z,6.30
2019-04-29T09:27:52.507Z,6.67
2019-04-29T09:30:21.332Z,6.83
2019-04-29T09:32:49.742Z,5.37
2019-04-29T09:35:18.208Z,6.70
2019-04-29T09:37:46.623Z,5.80
2019-04-29T09:40:19.895Z,5.50
2019-04-29T09:43:15.156Z,7.03
2019-04-29T09:45:53.997Z,6.10
2019-04-29T09:48:22.891Z,5.03
2019-04-29T09:50:51.328Z,4.80
2019-04-29T09:53:19.773Z,4.57
2019-04-29T09:55:48.301Z,5.20
2019-04-29T09:58:16.721Z,3.87
2019-04-29T10:00:49.228Z,4.17
2019-04-29T10:03:28.089Z,3.90
2019-04-29T10:06:07.035Z,3.90
2019-04-29T10:08:35.471Z,4.30
2019-04-29T10:11:03.930Z,4.30
2019-04-29T10:13:32.358Z,4.13
2019-04-29T10:16:02.442Z,4.50
2019-04-29T10:18:38.380Z,4.00
2019-04-29T10:21:11.427Z,4.47
2019-04-29T10:23:40.035Z,4.67
2019-04-29T10:26:08.471Z,4.13
2019-04-29T10:28:38.607Z,3.53
2019-04-29T10:31:08.695Z,3.40
2019-04-29T10:33:37.200Z,4.87
2019-04-29T10:36:06.691Z,4.67
2019-04-29T10:38:35.198Z,5.40
2019-04-29T10:41:05.333Z,4.40
2019-04-29T10:43:53.820Z,3.33
2019-04-29T10:46:38.543Z,3.90
2019-04-29T10:49:11.646Z,4.93
2019-04-29T10:51:40.160Z,3.70
2019-04-29T10:54:09.826Z,4.00
2019-04-29T10:56:39.434Z,4.20
2019-04-29T10:59:11.052Z,5.20
2019-04-29T11:02:01.638Z,6.10
2019-04-29T11:04:31.675Z,5.90
2019-04-29T11:07:13.572Z,4.27
2019-04-29T11:09:33.925Z,4.27
2019-04-29T11:12:04.099Z,6.50
2019-04-29T11:14:33.209Z,3.60
2019-04-29T11:17:02.755Z,4.37
2019-04-29T11:19:35.034Z,4.40
2019-04-29T11:22:03.165Z,4.13
2019-04-29T11:24:36.059Z,5.13
2019-04-29T11:27:21.178Z,5.20
2019-04-29T11:29:49.625Z,4.70
2019-04-29T11:32:31.562Z,4.80
2019-04-29T11:35:04.319Z,3.43
2019-04-29T11:37:33.131Z,4.73
2019-04-29T11:40:01.560Z,3.93
2019-04-29T11:42:31.783Z,6.60
2019-04-29T11:45:01.969Z,3.73
2019-04-29T11:47:30.863Z,7.67
2019-04-29T11:50:00.928Z,3.50
2019-04-29T11:52:29.368Z,3.00
2019-04-29T11:54:57.872Z,3.80
2019-04-29T11:57:40.335Z,3.40
2019-04-29T12:00:00.083Z,4.37
2019-04-29T12:02:44.586Z,4.73
2019-04-29T12:05:04.234Z,3.37
2019-04-29T12:07:33.962Z,3.27
2019-04-29T12:10:06.627Z,3.90
2019-04-29T12:12:33.031Z,4.00
2019-04-29T12:15:03.109Z,3.80
2019-04-29T12:17:39.169Z,4.47
2019-04-29T12:20:09.395Z,4.50
2019-04-29T12:22:48.061Z,6.10
2019-04-29T12:25:08.209Z,5.40
2019-04-29T12:27:36.731Z,5.33
2019-04-29T12:30:10.077Z,5.00
2019-04-29T12:32:49.036Z,4.67
2019-04-29T12:35:23.360Z,5.43
2019-04-29T12:38:08.518Z,5.70
2019-04-29T12:40:39.930Z,4.77
2019-04-29T12:43:26.303Z,4.97
2019-04-29T12:46:05.550Z,5.20
2019-04-29T12:48:34.018Z,4.63
2019-04-29T12:51:02.803Z,5.97
2019-04-29T12:53:31.234Z,4.83
2019-04-29T12:55:59.683Z,4.33
2019-04-29T12:58:28.103Z,5.13
2019-04-29T13:01:01.085Z,5.37
2019-04-29T13:03:30.896Z,4.10
2019-04-29T13:06:04.326Z,5.40
2019-04-29T13:08:34.449Z,3.23
2019-04-29T13:11:04.586Z,6.37
2019-04-29T13:13:33.016Z,5.20
2019-04-29T13:16:20.655Z,6.33
2019-04-29T13:18:53.769Z,6.73
2019-04-29T13:21:21.291Z,6.70
2019-04-29T13:24:05.025Z,5.93
2019-04-29T13:26:27.915Z,6.50
2019-04-29T13:29:00.358Z,5.70
2019-04-29T13:31:20.397Z,4.77
2019-04-29T13:33:50.914Z,4.97
2019-04-29T13:36:26.033Z,4.90
2019-04-29T13:38:50.033Z,5.00
2019-04-29T13:41:23.885Z,5.33
2019-04-29T13:43:49.531Z,4.90
2019-04-29T13:46:19.748Z,5.23
2019-04-29T13:49:16.605Z,4.60
2019-04-29T13:51:46.868Z,8.57
2019-04-29T13:54:15.295Z,4.50
2019-04-29T13:56:55.658Z,5.40
2019-04-29T13:59:15.533Z,6.60
2019-04-29T14:02:01.470Z,6.17
2019-04-29T14:04:32.580Z,6.83
2019-04-29T14:07:01.035Z,8.43
2019-04-29T14:09:29.468Z,7.40
2019-04-29T14:12:02.863Z,5.80
2019-04-29T14:14:28.347Z,5.03
2019-04-29T14:17:11.877Z,6.30
2019-04-29T14:19:40.824Z,6.43
2019-04-29T14:21:57.294Z,7.07
2019-04-29T14:24:25.796Z,7.07
2019-04-29T14:26:54.230Z,8.40
2019-04-29T14:29:27.482Z,7.57
2019-04-29T14:31:59.188Z,7.83
2019-04-29T14:34:34.770Z,8.40
2019-04-29T14:37:19.752Z,8.27
2019-04-29T14:39:37.204Z,8.23
2019-04-29T14:42:15.423Z,6.93
2019-04-29T14:44:48.453Z,9.97
2019-04-29T14:47:36.756Z,7.90
2019-04-29T14:50:10.794Z,8.00
2019-04-29T14:52:38.122Z,8.43
2019-04-29T14:55:07.223Z,10.10
2019-04-29T14:57:35.679Z,8.53
2019-04-29T15:00:07.377Z,9.27
2019-04-29T15:02:35.870Z,7.97
2019-04-29T15:05:07.297Z,6.40
2019-04-29T15:07:36.773Z,7.50
2019-04-29T15:10:07.724Z,8.67
2019-04-29T15:12:51.195Z,7.67
2019-04-29T15:15:12.394Z,7.20
2019-04-29T15:17:44.894Z,6.50
2019-04-29T15:20:17.011Z,7.03
2019-04-29T15:22:45.457Z,6.80
2019-04-29T15:25:16.790Z,7.10
2019-04-29T15:27:44.592Z,7.00
2019-04-29T15:30:13.375Z,7.20
2019-04-29T15:32:41.800Z,7.17
2019-04-29T15:35:10.376Z,8.23
2019-04-29T15:37:38.802Z,13.67
2019-04-29T15:40:07.932Z,17.10
2019-04-29T15:42:37.877Z,14.17
2019-04-29T15:45:07.108Z,7.23
2019-04-29T15:47:35.570Z,5.90
2019-04-29T15:52:36.022Z,6.73
2019-04-29T15:55:05.107Z,5.87
2019-04-29T15:57:33.552Z,7.40
2019-04-29T16:00:19.917Z,6.63
2019-04-29T16:02:35.831Z,6.20
2019-04-29T16:05:20.249Z,6.60
2019-04-29T16:07:51.490Z,6.50
2019-04-29T16:10:37.162Z,7.50
2019-04-29T16:13:09.924Z,7.20
2019-04-29T16:15:38.371Z,7.97
2019-04-29T16:18:10.639Z,7.50
2019-04-29T16:20:37.418Z,6.40
2019-04-29T16:23:05.915Z,7.03
2019-04-29T16:28:04.531Z,7.10
2019-04-29T16:30:33.764Z,7.53
2019-04-29T16:33:13.050Z,7.30
2019-04-29T16:35:34.826Z,8.20
2019-04-29T16:38:05.681Z,7.00
2019-04-29T16:40:39.132Z,7.30
2019-04-29T16:43:06.768Z,7.87
2019-04-29T16:48:19.865Z,9.27
2019-04-29T16:50:48.357Z,9.80
2019-04-29T16:53:16.810Z,8.93
2019-04-29T16:55:45.239Z,9.80
2019-04-29T16:58:18.037Z,10.23
2019-04-29T17:00:46.822Z,11.60
2019-04-29T17:03:14.431Z,23.90
2019-04-29T17:05:42.909Z,15.73
2019-04-29T17:08:15.192Z,15.13
2019-04-29T17:10:43.600Z,18.30
2019-04-29T17:13:16.668Z,11.80
2019-04-29T17:15:44.497Z,11.10
2019-04-29T17:18:12.423Z,8.33
2019-04-29T17:20:40.847Z,9.83
2019-04-29T17:23:09.290Z,8.40
2019-04-29T17:25:37.714Z,8.83
2019-04-29T17:28:25.406Z,8.90
2019-04-29T17:31:00.349Z,8.50
2019-04-29T17:33:31.490Z,10.20
2019-04-29T17:35:14.119Z,7.97
2019-04-29T17:35:14.926Z,6.10
2019-04-29T17:36:00.614Z,10.50
2019-04-29T17:38:29.050Z,9.27
2019-04-29T17:40:57.503Z,10.30
2019-04-29T17:43:27.588Z,10.00
2019-04-29T17:45:57.651Z,9.80
2019-04-29T17:48:27.742Z,10.53
2019-04-29T17:50:57.838Z,10.43
2019-04-29T17:53:30.826Z,10.47
2019-04-29T17:56:06.928Z,11.23
2019-04-29T17:58:37.059Z,11.07
2019-04-29T18:01:07.315Z,10.60
2019-04-29T18:03:46.248Z,12.37
2019-04-29T18:06:24.400Z,12.60
2019-04-29T18:08:54.983Z,11.70
2019-04-29T18:11:24.969Z,13.90
2019-04-29T18:13:56.927Z,14.13
2019-04-29T18:16:28.245Z,14.00
2019-04-29T18:19:03.353Z,17.93
2019-04-29T18:21:49.801Z,14.20
2019-04-29T18:24:22.822Z,19.13
2019-04-29T18:26:53.000Z,17.03
2019-04-29T18:29:21.484Z,17.70
2019-04-29T18:31:49.908Z,15.90
2019-04-29T18:34:18.347Z,14.30
2019-04-29T18:36:46.775Z,13.80
2019-04-29T18:39:20.197Z,15.30
2019-04-29T18:41:47.042Z,14.73
2019-04-29T18:44:19.602Z,15.50
2019-04-29T18:46:53.102Z,15.30
2019-04-29T18:49:15.971Z,15.83
2019-04-29T18:51:45.568Z,16.73
2019-04-29T18:54:14.034Z,16.77
2019-04-29T18:56:42.478Z,16.27
2019-04-29T18:59:11.000Z,18.07
2019-04-29T19:01:39.436Z,16.70
2019-04-29T19:04:27.679Z,17.80
2019-04-29T19:07:02.082Z,17.53
2019-04-29T19:09:28.015Z,17.80
2019-04-29T19:11:58.050Z,17.63
2019-04-29T19:14:28.243Z,18.23
2019-04-29T19:17:00.121Z,19.10
2019-04-29T19:19:30.838Z,17.93
2019-04-29T19:22:00.796Z,18.50
2019-04-29T19:24:27.539Z,18.27
2019-04-29T19:27:00.539Z,18.50
2019-04-29T19:29:26.184Z,18.03
2019-04-29T19:31:54.932Z,19.53
2019-04-29T19:34:24.902Z,20.63
2019-04-29T19:36:58.009Z,21.70
2019-04-29T19:39:25.513Z,19.97
2019-04-29T19:41:55.634Z,20.00
2019-04-29T19:44:26.463Z,20.07
2019-04-29T19:46:56.971Z,20.53
2019-04-29T19:49:25.790Z,22.03
2019-04-29T19:51:55.493Z,21.10
2019-04-29T19:54:28.428Z,22.70
2019-04-29T19:57:02.922Z,20.70
2019-04-29T19:59:25.890Z,19.80
2019-04-29T20:02:01.765Z,21.80
2019-04-29T20:04:41.636Z,21.70
2019-04-29T20:07:11.008Z,22.63
2019-04-29T20:09:40.908Z,26.17
2019-04-29T20:12:13.325Z,21.37
2019-04-29T20:14:40.797Z,22.70
2019-04-29T20:17:30.426Z,22.40
2019-04-29T20:20:05.528Z,26.03
2019-04-29T20:22:37.098Z,23.27
2019-04-29T20:25:06.769Z,22.37
2019-04-29T20:27:37.486Z,22.50
2019-04-29T20:30:15.963Z,21.90
2019-04-29T20:32:37.676Z,21.40
2019-04-29T20:35:08.778Z,22.23
2019-04-29T20:37:37.391Z,21.60
2019-04-29T20:40:09.329Z,21.50
2019-04-29T20:42:40.372Z,22.67
2019-04-29T20:45:08.496Z,20.30
2019-04-29T20:47:40.725Z,21.33
2019-04-29T20:50:08.911Z,20.23
2019-04-29T20:52:43.177Z,22.60
2019-04-29T20:55:12.124Z,23.87
2019-04-29T20:57:40.725Z,22.33
2019-04-29T21:00:10.516Z,23.03
2019-04-29T21:02:39.239Z,19.47
2019-04-29T21:05:09.845Z,22.37
2019-04-29T21:07:38.099Z,22.27
2019-04-29T21:10:08.560Z,23.87
2019-04-29T21:12:38.846Z,23.60
2019-04-29T21:15:18.372Z,23.70
2019-04-29T21:17:46.878Z,22.90
2019-04-29T21:20:15.327Z,22.20
2019-04-29T21:22:45.456Z,21.60
2019-04-29T21:25:14.074Z,20.60
2019-04-29T21:27:42.522Z,21.63
2019-04-29T21:30:11.369Z,22.80
2019-04-29T21:32:39.808Z,22.03
2019-04-29T21:35:21.514Z,20.20
2019-04-29T21:37:51.601Z,19.70
2019-04-29T21:40:26.506Z,22.20
2019-04-29T21:42:56.239Z,21.57
2019-04-29T21:45:25.718Z,23.03
2019-04-29T21:47:54.678Z,21.90
2019-04-29T21:50:27.186Z,20.50
2019-04-29T21:52:55.417Z,22.20
2019-04-29T21:55:25.812Z,21.37
2019-04-29T21:57:54.502Z,21.17
2019-04-29T22:00:24.534Z,20.80
2019-04-29T22:02:55.290Z,21.80
2019-04-29T22:05:25.092Z,21.20
2019-04-29T22:07:54.039Z,20.97
2019-04-29T22:10:27.496Z,20.60
2019-04-29T22:12:58.349Z,22.70
2019-04-29T22:15:30.709Z,22.37
2019-04-29T22:17:58.513Z,21.00
2019-04-29T22:20:25.745Z,23.63
2019-04-29T22:22:55.853Z,21.97
2019-04-29T22:25:25.725Z,22.00
2019-04-29T22:27:55.418Z,23.17
2019-04-29T22:30:24.084Z,21.50
2019-04-29T22:32:58.040Z,21.90
2019-04-29T22:35:22.678Z,21.80
2019-04-29T22:37:51.119Z,20.20
2019-04-29T22:40:19.548Z,21.77
2019-04-29T22:43:10.232Z,22.83
2019-04-29T22:45:37.863Z,21.83
2019-04-29T22:48:14.783Z,21.83
2019-04-29T22:50:38.068Z,21.00
2019-04-29T22:53:08.829Z,20.63
2019-04-29T22:55:38.813Z,19.73
2019-04-29T22:58:09.758Z,21.30
2019-04-29T23:00:37.171Z,21.60
2019-04-29T23:03:05.616Z,18.57
2019-04-29T23:05:35.695Z,19.27
2019-04-29T23:08:05.125Z,19.73
2019-04-29T23:10:35.519Z,20.80
2019-04-29T23:13:03.911Z,20.33
2019-04-29T23:15:32.908Z,21.30
2019-04-29T23:18:01.347Z,19.87
2019-04-29T23:20:31.427Z,20.77
2019-04-29T23:23:10.627Z,21.40
2019-04-29T23:25:46.582Z,20.20
2019-04-29T23:28:15.010Z,19.60
2019-04-29T23:30:47.800Z,20.27
2019-04-29T23:33:15.123Z,20.47
2019-04-29T23:35:44.813Z,20.20
2019-04-29T23:38:13.351Z,19.93
2019-04-29T23:40:41.820Z,20.53
2019-04-29T23:43:10.256Z,20.57
2019-04-29T23:45:38.772Z,21.40
2019-04-29T23:48:07.196Z,18.20
2019-04-29T23:50:36.017Z,20.20
2019-04-29T23:53:05.781Z,19.83
2019-04-29T23:55:35.624Z,20.80
2019-04-29T23:58:21.564Z,20.97
